sensor_id;sensor_type;location;lat;lon;timestamp;P1;durP1;ratioP1;P2;durP2;ratioP2
72354;SDS011;60314;55.040;73.076;2022-11-15T00:00:41;3.33;;;1.65;;
72354;SDS011;60314;55.040;73.076;2022-11-15T00:03:28;2.45;;;1.23;;
72354;SDS011;60314;55.040;73.076;2022-11-15T00:06:13;3.28;;;1.60;;
72354;SDS011;60314;55.040;73.076;2022-11-15T00:09:02;3.13;;;1.50;;
72354;SDS011;60314;55.040;73.076;2022-11-15T00:11:52;3.45;;;1.50;;
72354;SDS011;60314;55.040;73.076;2022-11-15T00:14:37;3.40;;;1.52;;
72354;SDS011;60314;55.040;73.076;2022-11-15T00:17:22;2.85;;;1.48;;
72354;SDS011;60314;55.040;73.076;2022-11-15T00:20:07;3.42;;;1.58;;
72354;SDS011;60314;55.040;73.076;2022-11-15T00:22:52;2.78;;;1.42;;
72354;SDS011;60314;55.040;73.076;2022-11-15T00:25:38;3.83;;;1.40;;
72354;SDS011;60314;55.040;73.076;2022-11-15T00:28:33;3.03;;;1.55;;
72354;SDS011;60314;55.040;73.076;2022-11-15T00:31:18;3.35;;;1.70;;
72354;SDS011;60314;55.040;73.076;2022-11-15T00:34:08;3.17;;;1.75;;
72354;SDS011;60314;55.040;73.076;2022-11-15T00:36:54;3.65;;;1.80;;
72354;SDS011;60314;55.040;73.076;2022-11-15T00:39:39;3.55;;;1.50;;
72354;SDS011;60314;55.040;73.076;2022-11-15T00:42:24;3.47;;;1.70;;
72354;SDS011;60314;55.040;73.076;2022-11-15T00:45:09;3.40;;;1.88;;
72354;SDS011;60314;55.040;73.076;2022-11-15T00:47:54;4.13;;;2.00;;
72354;SDS011;60314;55.040;73.076;2022-11-15T00:50:39;3.47;;;1.90;;
72354;SDS011;60314;55.040;73.076;2022-11-15T00:53:24;4.45;;;2.42;;
72354;SDS011;60314;55.040;73.076;2022-11-15T00:56:14;3.75;;;1.90;;
72354;SDS011;60314;55.040;73.076;2022-11-15T00:58:58;3.20;;;1.63;;
72354;SDS011;60314;55.040;73.076;2022-11-15T01:01:48;3.67;;;1.75;;
72354;SDS011;60314;55.040;73.076;2022-11-15T01:04:33;3.55;;;2.00;;
72354;SDS011;60314;55.040;73.076;2022-11-15T01:07:18;3.42;;;1.60;;
72354;SDS011;60314;55.040;73.076;2022-11-15T01:10:04;3.05;;;1.50;;
72354;SDS011;60314;55.040;73.076;2022-11-15T01:12:49;3.20;;;1.60;;
72354;SDS011;60314;55.040;73.076;2022-11-15T01:15:34;3.72;;;2.03;;
72354;SDS011;60314;55.040;73.076;2022-11-15T01:18:27;3.20;;;1.70;;
72354;SDS011;60314;55.040;73.076;2022-11-15T01:21:13;4.30;;;1.85;;
72354;SDS011;60314;55.040;73.076;2022-11-15T01:24:00;5.55;;;1.85;;
72354;SDS011;60314;55.040;73.076;2022-11-15T01:26:45;4.78;;;1.80;;
72354;SDS011;60314;55.040;73.076;2022-11-15T01:29:30;4.07;;;2.00;;
72354;SDS011;60314;55.040;73.076;2022-11-15T01:32:15;3.72;;;1.75;;
72354;SDS011;60314;55.040;73.076;2022-11-15T01:35:04;4.00;;;1.92;;
72354;SDS011;60314;55.040;73.076;2022-11-15T01:37:56;4.85;;;1.92;;
72354;SDS011;60314;55.040;73.076;2022-11-15T01:40:41;3.38;;;2.00;;
72354;SDS011;60314;55.040;73.076;2022-11-15T01:43:31;4.22;;;2.05;;
72354;SDS011;60314;55.040;73.076;2022-11-15T01:49:12;3.95;;;2.00;;
72354;SDS011;60314;55.040;73.076;2022-11-15T01:52:01;3.72;;;1.90;;
72354;SDS011;60314;55.040;73.076;2022-11-15T01:54:55;3.60;;;2.10;;
72354;SDS011;60314;55.040;73.076;2022-11-15T02:00:32;3.75;;;1.88;;
72354;SDS011;60314;55.040;73.076;2022-11-15T02:03:17;3.58;;;1.95;;
72354;SDS011;60314;55.040;73.076;2022-11-15T02:06:03;3.72;;;2.00;;
72354;SDS011;60314;55.040;73.076;2022-11-15T02:08:49;3.92;;;2.10;;
72354;SDS011;60314;55.040;73.076;2022-11-15T02:11:35;3.90;;;2.28;;
72354;SDS011;60314;55.040;73.076;2022-11-15T02:14:20;4.32;;;2.33;;
72354;SDS011;60314;55.040;73.076;2022-11-15T02:20:41;4.70;;;3.03;;
72354;SDS011;60314;55.040;73.076;2022-11-15T02:36:36;3.97;;;2.35;;
72354;SDS011;60314;55.040;73.076;2022-11-15T02:39:30;4.68;;;2.45;;
72354;SDS011;60314;55.040;73.076;2022-11-15T02:42:25;3.70;;;2.10;;
72354;SDS011;60314;55.040;73.076;2022-11-15T02:45:46;5.32;;;2.50;;
72354;SDS011;60314;55.040;73.076;2022-11-15T02:48:35;3.92;;;2.22;;
72354;SDS011;60314;55.040;73.076;2022-11-15T02:51:20;6.00;;;2.20;;
72354;SDS011;60314;55.040;73.076;2022-11-15T02:54:06;3.80;;;2.20;;
72354;SDS011;60314;55.040;73.076;2022-11-15T02:57:07;4.88;;;2.42;;
72354;SDS011;60314;55.040;73.076;2022-11-15T03:00:09;5.35;;;2.35;;
72354;SDS011;60314;55.040;73.076;2022-11-15T03:03:04;4.13;;;2.50;;
72354;SDS011;60314;55.040;73.076;2022-11-15T03:12:43;4.30;;;2.20;;
72354;SDS011;60314;55.040;73.076;2022-11-15T03:15:41;3.67;;;1.98;;
72354;SDS011;60314;55.040;73.076;2022-11-15T03:18:35;4.07;;;2.58;;
72354;SDS011;60314;55.040;73.076;2022-11-15T03:21:34;4.80;;;2.03;;
72354;SDS011;60314;55.040;73.076;2022-11-15T03:24:22;3.50;;;1.85;;
72354;SDS011;60314;55.040;73.076;2022-11-15T03:27:09;5.05;;;2.38;;
72354;SDS011;60314;55.040;73.076;2022-11-15T03:30:05;3.80;;;1.88;;
72354;SDS011;60314;55.040;73.076;2022-11-15T03:32:55;4.20;;;2.03;;
72354;SDS011;60314;55.040;73.076;2022-11-15T03:35:42;4.47;;;1.92;;
72354;SDS011;60314;55.040;73.076;2022-11-15T03:38:29;3.72;;;1.90;;
72354;SDS011;60314;55.040;73.076;2022-11-15T03:41:29;3.72;;;1.90;;
72354;SDS011;60314;55.040;73.076;2022-11-15T03:47:29;3.33;;;1.63;;
72354;SDS011;60314;55.040;73.076;2022-11-15T03:50:19;3.05;;;1.50;;
72354;SDS011;60314;55.040;73.076;2022-11-15T03:53:13;3.30;;;1.85;;
72354;SDS011;60314;55.040;73.076;2022-11-15T03:55:58;3.42;;;1.85;;
72354;SDS011;60314;55.040;73.076;2022-11-15T03:58:43;4.70;;;1.80;;
72354;SDS011;60314;55.040;73.076;2022-11-15T04:01:28;3.55;;;1.75;;
72354;SDS011;60314;55.040;73.076;2022-11-15T04:04:13;4.70;;;1.70;;
72354;SDS011;60314;55.040;73.076;2022-11-15T04:06:58;3.85;;;1.58;;
72354;SDS011;60314;55.040;73.076;2022-11-15T04:09:44;2.72;;;1.35;;
72354;SDS011;60314;55.040;73.076;2022-11-15T04:12:47;2.72;;;1.40;;
72354;SDS011;60314;55.040;73.076;2022-11-15T04:15:32;2.78;;;1.25;;
72354;SDS011;60314;55.040;73.076;2022-11-15T04:18:17;3.47;;;1.73;;
72354;SDS011;60314;55.040;73.076;2022-11-15T04:21:02;2.65;;;1.30;;
72354;SDS011;60314;55.040;73.076;2022-11-15T04:24:06;2.83;;;1.30;;
72354;SDS011;60314;55.040;73.076;2022-11-15T04:26:51;2.50;;;1.20;;
72354;SDS011;60314;55.040;73.076;2022-11-15T04:29:36;2.97;;;1.40;;
72354;SDS011;60314;55.040;73.076;2022-11-15T04:32:27;2.75;;;1.38;;
72354;SDS011;60314;55.040;73.076;2022-11-15T04:35:16;2.80;;;1.50;;
72354;SDS011;60314;55.040;73.076;2022-11-15T04:38:07;3.30;;;1.80;;
72354;SDS011;60314;55.040;73.076;2022-11-15T04:40:53;3.80;;;1.60;;
72354;SDS011;60314;55.040;73.076;2022-11-15T04:43:38;3.38;;;1.70;;
72354;SDS011;60314;55.040;73.076;2022-11-15T04:46:23;2.97;;;1.60;;
72354;SDS011;60314;55.040;73.076;2022-11-15T04:49:09;2.80;;;1.40;;
72354;SDS011;60314;55.040;73.076;2022-11-15T04:51:54;3.20;;;1.40;;
72354;SDS011;60314;55.040;73.076;2022-11-15T04:54:39;2.95;;;1.60;;
72354;SDS011;60314;55.040;73.076;2022-11-15T04:57:36;3.17;;;1.40;;
72354;SDS011;60314;55.040;73.076;2022-11-15T05:00:22;3.28;;;1.60;;
72354;SDS011;60314;55.040;73.076;2022-11-15T05:03:08;3.00;;;1.20;;
72354;SDS011;60314;55.040;73.076;2022-11-15T05:06:12;3.17;;;1.55;;
72354;SDS011;60314;55.040;73.076;2022-11-15T05:08:57;2.65;;;1.45;;
72354;SDS011;60314;55.040;73.076;2022-11-15T05:11:42;3.00;;;1.38;;
72354;SDS011;60314;55.040;73.076;2022-11-15T05:14:27;3.10;;;1.40;;
72354;SDS011;60314;55.040;73.076;2022-11-15T05:17:12;2.60;;;1.20;;
72354;SDS011;60314;55.040;73.076;2022-11-15T05:19:57;2.35;;;1.00;;
72354;SDS011;60314;55.040;73.076;2022-11-15T05:22:42;2.58;;;1.25;;
72354;SDS011;60314;55.040;73.076;2022-11-15T05:25:28;2.30;;;1.08;;
72354;SDS011;60314;55.040;73.076;2022-11-15T05:28:13;3.15;;;1.10;;
72354;SDS011;60314;55.040;73.076;2022-11-15T05:31:05;2.33;;;1.10;;
72354;SDS011;60314;55.040;73.076;2022-11-15T05:33:58;2.30;;;1.00;;
72354;SDS011;60314;55.040;73.076;2022-11-15T05:36:45;2.10;;;0.98;;
72354;SDS011;60314;55.040;73.076;2022-11-15T05:39:35;2.40;;;0.85;;
72354;SDS011;60314;55.040;73.076;2022-11-15T05:42:20;2.00;;;0.90;;
72354;SDS011;60314;55.040;73.076;2022-11-15T05:45:05;2.25;;;0.82;;
72354;SDS011;60314;55.040;73.076;2022-11-15T05:47:52;2.40;;;1.00;;
72354;SDS011;60314;55.040;73.076;2022-11-15T05:50:41;2.33;;;1.05;;
72354;SDS011;60314;55.040;73.076;2022-11-15T05:53:28;2.60;;;1.10;;
72354;SDS011;60314;55.040;73.076;2022-11-15T05:56:13;2.58;;;1.20;;
72354;SDS011;60314;55.040;73.076;2022-11-15T05:58:59;2.60;;;1.20;;
72354;SDS011;60314;55.040;73.076;2022-11-15T06:01:48;2.30;;;0.90;;
72354;SDS011;60314;55.040;73.076;2022-11-15T06:04:39;2.67;;;1.27;;
72354;SDS011;60314;55.040;73.076;2022-11-15T06:07:23;2.60;;;1.20;;
72354;SDS011;60314;55.040;73.076;2022-11-15T06:10:08;2.40;;;1.10;;
72354;SDS011;60314;55.040;73.076;2022-11-15T06:12:57;2.22;;;1.10;;
72354;SDS011;60314;55.040;73.076;2022-11-15T06:15:43;2.33;;;1.00;;
72354;SDS011;60314;55.040;73.076;2022-11-15T06:18:31;2.97;;;1.25;;
72354;SDS011;60314;55.040;73.076;2022-11-15T06:21:17;2.40;;;0.93;;
72354;SDS011;60314;55.040;73.076;2022-11-15T06:24:02;1.90;;;0.80;;
72354;SDS011;60314;55.040;73.076;2022-11-15T06:26:48;1.73;;;0.90;;
72354;SDS011;60314;55.040;73.076;2022-11-15T06:29:38;2.00;;;0.80;;
72354;SDS011;60314;55.040;73.076;2022-11-15T06:32:23;2.03;;;0.82;;
72354;SDS011;60314;55.040;73.076;2022-11-15T06:35:08;2.28;;;0.90;;
72354;SDS011;60314;55.040;73.076;2022-11-15T06:37:53;3.13;;;1.00;;
72354;SDS011;60314;55.040;73.076;2022-11-15T06:40:39;2.83;;;0.90;;
72354;SDS011;60314;55.040;73.076;2022-11-15T06:43:24;2.30;;;1.02;;
72354;SDS011;60314;55.040;73.076;2022-11-15T06:46:09;1.85;;;0.77;;
72354;SDS011;60314;55.040;73.076;2022-11-15T06:48:54;2.03;;;0.85;;
72354;SDS011;60314;55.040;73.076;2022-11-15T06:51:39;2.20;;;0.98;;
72354;SDS011;60314;55.040;73.076;2022-11-15T06:54:24;1.70;;;0.75;;
72354;SDS011;60314;55.040;73.076;2022-11-15T06:57:09;1.95;;;0.88;;
72354;SDS011;60314;55.040;73.076;2022-11-15T06:59:54;2.38;;;0.80;;
72354;SDS011;60314;55.040;73.076;2022-11-15T07:02:39;1.98;;;0.77;;
72354;SDS011;60314;55.040;73.076;2022-11-15T07:05:24;2.22;;;0.98;;
72354;SDS011;60314;55.040;73.076;2022-11-15T07:08:09;1.63;;;0.70;;
72354;SDS011;60314;55.040;73.076;2022-11-15T07:10:57;1.90;;;0.73;;
72354;SDS011;60314;55.040;73.076;2022-11-15T07:13:53;2.03;;;0.80;;
72354;SDS011;60314;55.040;73.076;2022-11-15T07:16:38;1.95;;;0.70;;
72354;SDS011;60314;55.040;73.076;2022-11-15T07:19:23;1.63;;;0.70;;
72354;SDS011;60314;55.040;73.076;2022-11-15T07:22:09;2.15;;;0.75;;
72354;SDS011;60314;55.040;73.076;2022-11-15T07:24:54;2.47;;;0.90;;
72354;SDS011;60314;55.040;73.076;2022-11-15T07:27:39;2.17;;;0.90;;
72354;SDS011;60314;55.040;73.076;2022-11-15T07:30:25;2.10;;;0.90;;
72354;SDS011;60314;55.040;73.076;2022-11-15T07:33:10;2.30;;;0.80;;
72354;SDS011;60314;55.040;73.076;2022-11-15T07:36:01;1.77;;;0.70;;
72354;SDS011;60314;55.040;73.076;2022-11-15T07:38:47;2.20;;;0.88;;
72354;SDS011;60314;55.040;73.076;2022-11-15T07:41:32;2.53;;;0.70;;
72354;SDS011;60314;55.040;73.076;2022-11-15T07:44:17;2.10;;;0.85;;
72354;SDS011;60314;55.040;73.076;2022-11-15T07:47:02;2.40;;;0.85;;
72354;SDS011;60314;55.040;73.076;2022-11-15T07:49:47;2.30;;;1.02;;
72354;SDS011;60314;55.040;73.076;2022-11-15T07:52:32;2.80;;;1.20;;
72354;SDS011;60314;55.040;73.076;2022-11-15T07:55:17;3.42;;;1.33;;
72354;SDS011;60314;55.040;73.076;2022-11-15T07:58:08;5.40;;;1.63;;
72354;SDS011;60314;55.040;73.076;2022-11-15T08:00:54;4.43;;;1.40;;
72354;SDS011;60314;55.040;73.076;2022-11-15T08:03:39;6.13;;;2.50;;
72354;SDS011;60314;55.040;73.076;2022-11-15T08:06:26;4.53;;;1.50;;
72354;SDS011;60314;55.040;73.076;2022-11-15T08:09:11;3.60;;;1.70;;
72354;SDS011;60314;55.040;73.076;2022-11-15T08:11:56;7.45;;;2.00;;
72354;SDS011;60314;55.040;73.076;2022-11-15T08:14:40;8.45;;;2.53;;
72354;SDS011;60314;55.040;73.076;2022-11-15T08:17:25;5.18;;;2.22;;
72354;SDS011;60314;55.040;73.076;2022-11-15T08:20:10;7.90;;;2.70;;
72354;SDS011;60314;55.040;73.076;2022-11-15T08:22:56;7.10;;;2.08;;
72354;SDS011;60314;55.040;73.076;2022-11-15T08:25:44;5.88;;;2.67;;
72354;SDS011;60314;55.040;73.076;2022-11-15T08:28:30;3.97;;;2.03;;
72354;SDS011;60314;55.040;73.076;2022-11-15T08:31:17;6.57;;;2.17;;
72354;SDS011;60314;55.040;73.076;2022-11-15T08:34:03;4.20;;;1.58;;
72354;SDS011;60314;55.040;73.076;2022-11-15T08:36:48;4.05;;;2.05;;
72354;SDS011;60314;55.040;73.076;2022-11-15T08:39:33;4.70;;;2.00;;
72354;SDS011;60314;55.040;73.076;2022-11-15T08:42:18;5.78;;;2.22;;
72354;SDS011;60314;55.040;73.076;2022-11-15T08:45:03;4.30;;;1.52;;
72354;SDS011;60314;55.040;73.076;2022-11-15T08:47:49;4.22;;;1.70;;
72354;SDS011;60314;55.040;73.076;2022-11-15T08:50:34;3.05;;;1.60;;
72354;SDS011;60314;55.040;73.076;2022-11-15T08:53:26;4.38;;;2.05;;
72354;SDS011;60314;55.040;73.076;2022-11-15T08:56:13;4.97;;;1.90;;
72354;SDS011;60314;55.040;73.076;2022-11-15T08:58:59;4.45;;;1.70;;
72354;SDS011;60314;55.040;73.076;2022-11-15T09:01:49;3.10;;;1.77;;
72354;SDS011;60314;55.040;73.076;2022-11-15T09:04:34;4.20;;;2.05;;
72354;SDS011;60314;55.040;73.076;2022-11-15T09:07:19;3.55;;;1.90;;
72354;SDS011;60314;55.040;73.076;2022-11-15T09:10:04;3.83;;;1.90;;
72354;SDS011;60314;55.040;73.076;2022-11-15T09:12:49;4.28;;;2.20;;
72354;SDS011;60314;55.040;73.076;2022-11-15T09:15:34;4.90;;;2.30;;
72354;SDS011;60314;55.040;73.076;2022-11-15T09:18:19;3.50;;;2.08;;
72354;SDS011;60314;55.040;73.076;2022-11-15T09:21:12;3.90;;;2.00;;
72354;SDS011;60314;55.040;73.076;2022-11-15T09:23:57;3.85;;;2.15;;
72354;SDS011;60314;55.040;73.076;2022-11-15T09:26:42;4.00;;;1.60;;
72354;SDS011;60314;55.040;73.076;2022-11-15T09:29:31;4.00;;;1.55;;
72354;SDS011;60314;55.040;73.076;2022-11-15T09:32:16;4.15;;;1.73;;
72354;SDS011;60314;55.040;73.076;2022-11-15T09:35:01;4.63;;;1.58;;
72354;SDS011;60314;55.040;73.076;2022-11-15T09:37:49;3.05;;;1.42;;
72354;SDS011;60314;55.040;73.076;2022-11-15T09:40:35;3.28;;;1.50;;
72354;SDS011;60314;55.040;73.076;2022-11-15T09:43:32;3.58;;;1.60;;
72354;SDS011;60314;55.040;73.076;2022-11-15T09:46:43;3.00;;;1.50;;
72354;SDS011;60314;55.040;73.076;2022-11-15T09:49:34;2.78;;;1.20;;
72354;SDS011;60314;55.040;73.076;2022-11-15T09:52:17;4.97;;;1.92;;
72354;SDS011;60314;55.040;73.076;2022-11-15T09:54:46;3.47;;;1.40;;
72354;SDS011;60314;55.040;73.076;2022-11-15T09:57:16;3.22;;;1.60;;
72354;SDS011;60314;55.040;73.076;2022-11-15T10:02:33;3.03;;;1.20;;
72354;SDS011;60314;55.040;73.076;2022-11-15T10:05:22;1.85;;;0.75;;
72354;SDS011;60314;55.040;73.076;2022-11-15T10:07:54;2.30;;;0.95;;
72354;SDS011;60314;55.040;73.076;2022-11-15T10:10:36;2.37;;;1.10;;
72354;SDS011;60314;55.040;73.076;2022-11-15T10:13:04;2.15;;;0.90;;
72354;SDS011;60314;55.040;73.076;2022-11-15T10:15:30;1.88;;;0.75;;
72354;SDS011;60314;55.040;73.076;2022-11-15T10:18:05;2.42;;;0.95;;
72354;SDS011;60314;55.040;73.076;2022-11-15T10:20:44;2.45;;;1.10;;
72354;SDS011;60314;55.040;73.076;2022-11-15T10:23:14;2.75;;;0.95;;
72354;SDS011;60314;55.040;73.076;2022-11-15T10:25:46;2.05;;;0.80;;
72354;SDS011;60314;55.040;73.076;2022-11-15T10:30:42;2.05;;;0.82;;
72354;SDS011;60314;55.040;73.076;2022-11-15T10:35:39;2.50;;;0.90;;
72354;SDS011;60314;55.040;73.076;2022-11-15T10:38:08;2.17;;;0.85;;
72354;SDS011;60314;55.040;73.076;2022-11-15T10:40:37;1.88;;;0.82;;
72354;SDS011;60314;55.040;73.076;2022-11-15T10:43:16;2.42;;;0.90;;
72354;SDS011;60314;55.040;73.076;2022-11-15T10:45:44;3.30;;;1.00;;
72354;SDS011;60314;55.040;73.076;2022-11-15T10:50:46;3.22;;;1.20;;
72354;SDS011;60314;55.040;73.076;2022-11-15T10:53:20;3.30;;;1.10;;
72354;SDS011;60314;55.040;73.076;2022-11-15T10:56:07;2.40;;;1.00;;
72354;SDS011;60314;55.040;73.076;2022-11-15T10:58:42;4.35;;;1.33;;
72354;SDS011;60314;55.040;73.076;2022-11-15T11:01:12;2.95;;;1.10;;
72354;SDS011;60314;55.040;73.076;2022-11-15T11:03:44;2.42;;;0.90;;
72354;SDS011;60314;55.040;73.076;2022-11-15T11:06:52;2.33;;;0.88;;
72354;SDS011;60314;55.040;73.076;2022-11-15T11:12:04;2.58;;;0.85;;
72354;SDS011;60314;55.040;73.076;2022-11-15T11:14:35;2.47;;;0.87;;
72354;SDS011;60314;55.040;73.076;2022-11-15T11:23:04;2.10;;;0.80;;
72354;SDS011;60314;55.040;73.076;2022-11-15T11:26:04;2.00;;;0.70;;
72354;SDS011;60314;55.040;73.076;2022-11-15T11:28:53;2.20;;;0.90;;
72354;SDS011;60314;55.040;73.076;2022-11-15T11:45:47;3.53;;;1.60;;
72354;SDS011;60314;55.040;73.076;2022-11-15T11:48:40;3.95;;;1.60;;
72354;SDS011;60314;55.040;73.076;2022-11-15T11:51:18;4.60;;;1.77;;
72354;SDS011;60314;55.040;73.076;2022-11-15T11:54:00;3.75;;;1.73;;
72354;SDS011;60314;55.040;73.076;2022-11-15T11:56:37;4.25;;;1.98;;
72354;SDS011;60314;55.040;73.076;2022-11-15T12:01:49;4.75;;;2.25;;
72354;SDS011;60314;55.040;73.076;2022-11-15T12:04:29;5.40;;;2.53;;
72354;SDS011;60314;55.040;73.076;2022-11-15T12:07:07;5.28;;;2.40;;
72354;SDS011;60314;55.040;73.076;2022-11-15T12:09:43;4.97;;;2.42;;
72354;SDS011;60314;55.040;73.076;2022-11-15T12:15:04;6.35;;;2.92;;
72354;SDS011;60314;55.040;73.076;2022-11-15T12:17:36;6.65;;;2.95;;
72354;SDS011;60314;55.040;73.076;2022-11-15T12:20:27;6.18;;;2.95;;
72354;SDS011;60314;55.040;73.076;2022-11-15T12:22:59;6.07;;;3.30;;
72354;SDS011;60314;55.040;73.076;2022-11-15T12:25:56;5.68;;;2.95;;
72354;SDS011;60314;55.040;73.076;2022-11-15T12:33:48;5.60;;;2.92;;
72354;SDS011;60314;55.040;73.076;2022-11-15T12:41:27;5.32;;;2.83;;
72354;SDS011;60314;55.040;73.076;2022-11-15T12:43:56;5.85;;;3.00;;
72354;SDS011;60314;55.040;73.076;2022-11-15T12:59:59;5.97;;;3.00;;
72354;SDS011;60314;55.040;73.076;2022-11-15T13:22:42;2.95;;;1.48;;
72354;SDS011;60314;55.040;73.076;2022-11-15T13:25:33;2.80;;;1.00;;
72354;SDS011;60314;55.040;73.076;2022-11-15T13:33:26;2.13;;;0.77;;
72354;SDS011;60314;55.040;73.076;2022-11-15T13:36:05;2.60;;;1.00;;
72354;SDS011;60314;55.040;73.076;2022-11-15T13:38:35;2.28;;;0.90;;
72354;SDS011;60314;55.040;73.076;2022-11-15T13:41:19;3.58;;;0.90;;
72354;SDS011;60314;55.040;73.076;2022-11-15T13:43:53;2.47;;;0.85;;
72354;SDS011;60314;55.040;73.076;2022-11-15T13:46:22;2.22;;;0.75;;
72354;SDS011;60314;55.040;73.076;2022-11-15T13:49:03;3.53;;;0.80;;
72354;SDS011;60314;55.040;73.076;2022-11-15T13:59:25;2.38;;;1.10;;
72354;SDS011;60314;55.040;73.076;2022-11-15T14:01:54;3.17;;;1.50;;
72354;SDS011;60314;55.040;73.076;2022-11-15T14:04:32;2.50;;;1.30;;
72354;SDS011;60314;55.040;73.076;2022-11-15T14:07:05;2.97;;;1.33;;
72354;SDS011;60314;55.040;73.076;2022-11-15T14:09:32;2.85;;;1.40;;
72354;SDS011;60314;55.040;73.076;2022-11-15T14:17:54;3.22;;;1.40;;
72354;SDS011;60314;55.040;73.076;2022-11-15T14:20:32;2.90;;;1.10;;
72354;SDS011;60314;55.040;73.076;2022-11-15T14:23:01;3.38;;;1.50;;
72354;SDS011;60314;55.040;73.076;2022-11-15T14:25:33;3.05;;;1.50;;
72354;SDS011;60314;55.040;73.076;2022-11-15T14:28:16;3.38;;;1.48;;
72354;SDS011;60314;55.040;73.076;2022-11-15T14:31:00;3.28;;;1.77;;
72354;SDS011;60314;55.040;73.076;2022-11-15T14:36:13;3.03;;;1.60;;
72354;SDS011;60314;55.040;73.076;2022-11-15T14:38:41;3.33;;;1.70;;
72354;SDS011;60314;55.040;73.076;2022-11-15T14:41:18;3.20;;;1.50;;
72354;SDS011;60314;55.040;73.076;2022-11-15T14:43:46;3.05;;;1.48;;
72354;SDS011;60314;55.040;73.076;2022-11-15T14:46:13;3.33;;;1.58;;
72354;SDS011;60314;55.040;73.076;2022-11-15T14:49:04;3.17;;;1.48;;
72354;SDS011;60314;55.040;73.076;2022-11-15T14:51:41;2.85;;;1.38;;
72354;SDS011;60314;55.040;73.076;2022-11-15T14:54:11;2.80;;;1.30;;
72354;SDS011;60314;55.040;73.076;2022-11-15T14:56:38;3.95;;;1.60;;
72354;SDS011;60314;55.040;73.076;2022-11-15T14:59:14;2.92;;;1.33;;
72354;SDS011;60314;55.040;73.076;2022-11-15T15:01:41;3.00;;;1.25;;
72354;SDS011;60314;55.040;73.076;2022-11-15T15:04:19;2.85;;;1.20;;
72354;SDS011;60314;55.040;73.076;2022-11-15T15:06:45;2.70;;;1.15;;
72354;SDS011;60314;55.040;73.076;2022-11-15T15:09:12;3.13;;;1.17;;
72354;SDS011;60314;55.040;73.076;2022-11-15T15:11:45;2.85;;;1.20;;
72354;SDS011;60314;55.040;73.076;2022-11-15T15:14:12;2.92;;;1.10;;
72354;SDS011;60314;55.040;73.076;2022-11-15T15:19:10;2.72;;;1.23;;
72354;SDS011;60314;55.040;73.076;2022-11-15T15:21:37;3.72;;;1.02;;
72354;SDS011;60314;55.040;73.076;2022-11-15T15:24:03;1.90;;;0.70;;
72354;SDS011;60314;55.040;73.076;2022-11-15T15:26:32;2.42;;;0.90;;
72354;SDS011;60314;55.040;73.076;2022-11-15T15:29:04;2.60;;;0.90;;
72354;SDS011;60314;55.040;73.076;2022-11-15T15:31:35;1.87;;;0.80;;
72354;SDS011;60314;55.040;73.076;2022-11-15T15:34:02;2.15;;;0.90;;
72354;SDS011;60314;55.040;73.076;2022-11-15T15:36:28;2.50;;;0.95;;
72354;SDS011;60314;55.040;73.076;2022-11-15T15:39:03;2.13;;;0.73;;
72354;SDS011;60314;55.040;73.076;2022-11-15T15:41:30;1.90;;;0.75;;
72354;SDS011;60314;55.040;73.076;2022-11-15T15:43:56;2.63;;;0.82;;
72354;SDS011;60314;55.040;73.076;2022-11-15T15:46:23;2.20;;;0.70;;
72354;SDS011;60314;55.040;73.076;2022-11-15T15:48:50;2.60;;;1.02;;
72354;SDS011;60314;55.040;73.076;2022-11-15T15:51:17;2.83;;;0.90;;
72354;SDS011;60314;55.040;73.076;2022-11-15T15:53:43;2.80;;;1.13;;
72354;SDS011;60314;55.040;73.076;2022-11-15T15:56:11;2.50;;;1.05;;
72354;SDS011;60314;55.040;73.076;2022-11-15T15:58:45;2.95;;;1.10;;
72354;SDS011;60314;55.040;73.076;2022-11-15T16:01:11;2.80;;;1.10;;
72354;SDS011;60314;55.040;73.076;2022-11-15T16:03:37;2.63;;;1.10;;
72354;SDS011;60314;55.040;73.076;2022-11-15T16:06:04;3.80;;;1.23;;
72354;SDS011;60314;55.040;73.076;2022-11-15T16:08:31;2.38;;;1.00;;
72354;SDS011;60314;55.040;73.076;2022-11-15T16:10:57;3.33;;;1.35;;
72354;SDS011;60314;55.040;73.076;2022-11-15T16:13:25;4.28;;;1.38;;
72354;SDS011;60314;55.040;73.076;2022-11-15T16:15:52;4.72;;;1.50;;
72354;SDS011;60314;55.040;73.076;2022-11-15T16:18:20;3.42;;;1.33;;
72354;SDS011;60314;55.040;73.076;2022-11-15T16:20:47;4.60;;;2.22;;
72354;SDS011;60314;55.040;73.076;2022-11-15T16:23:22;3.10;;;1.40;;
72354;SDS011;60314;55.040;73.076;2022-11-15T16:25:53;3.10;;;1.42;;
72354;SDS011;60314;55.040;73.076;2022-11-15T16:28:25;4.82;;;1.77;;
72354;SDS011;60314;55.040;73.076;2022-11-15T16:31:03;3.58;;;1.70;;
72354;SDS011;60314;55.040;73.076;2022-11-15T16:33:37;3.97;;;1.90;;
72354;SDS011;60314;55.040;73.076;2022-11-15T16:36:05;3.92;;;1.75;;
72354;SDS011;60314;55.040;73.076;2022-11-15T16:38:42;4.93;;;1.80;;
72354;SDS011;60314;55.040;73.076;2022-11-15T16:41:19;5.07;;;1.50;;
72354;SDS011;60314;55.040;73.076;2022-11-15T16:43:55;3.38;;;1.60;;
72354;SDS011;60314;55.040;73.076;2022-11-15T16:46:25;4.82;;;1.83;;
72354;SDS011;60314;55.040;73.076;2022-11-15T16:49:02;5.85;;;1.92;;
72354;SDS011;60314;55.040;73.076;2022-11-15T16:51:29;3.63;;;1.80;;
72354;SDS011;60314;55.040;73.076;2022-11-15T16:54:05;4.18;;;2.20;;
72354;SDS011;60314;55.040;73.076;2022-11-15T16:56:42;4.28;;;1.95;;
72354;SDS011;60314;55.040;73.076;2022-11-15T16:59:19;4.68;;;2.00;;
72354;SDS011;60314;55.040;73.076;2022-11-15T17:01:50;5.77;;;2.00;;
72354;SDS011;60314;55.040;73.076;2022-11-15T17:04:18;3.85;;;1.80;;
72354;SDS011;60314;55.040;73.076;2022-11-15T17:06:48;4.90;;;1.45;;
72354;SDS011;60314;55.040;73.076;2022-11-15T17:09:21;5.00;;;2.28;;
72354;SDS011;60314;55.040;73.076;2022-11-15T17:11:51;4.45;;;1.90;;
72354;SDS011;60314;55.040;73.076;2022-11-15T17:14:27;3.92;;;1.88;;
72354;SDS011;60314;55.040;73.076;2022-11-15T17:17:00;4.50;;;1.98;;
72354;SDS011;60314;55.040;73.076;2022-11-15T17:19:28;4.47;;;1.88;;
72354;SDS011;60314;55.040;73.076;2022-11-15T17:22:00;3.87;;;1.83;;
72354;SDS011;60314;55.040;73.076;2022-11-15T17:24:37;4.60;;;1.90;;
72354;SDS011;60314;55.040;73.076;2022-11-15T17:27:06;4.75;;;1.98;;
72354;SDS011;60314;55.040;73.076;2022-11-15T17:29:32;5.20;;;2.38;;
72354;SDS011;60314;55.040;73.076;2022-11-15T17:31:59;4.30;;;2.08;;
72354;SDS011;60314;55.040;73.076;2022-11-15T17:34:26;5.13;;;2.47;;
72354;SDS011;60314;55.040;73.076;2022-11-15T17:36:52;4.65;;;2.45;;
72354;SDS011;60314;55.040;73.076;2022-11-15T17:39:18;4.05;;;2.17;;
72354;SDS011;60314;55.040;73.076;2022-11-15T17:41:50;5.50;;;2.50;;
72354;SDS011;60314;55.040;73.076;2022-11-15T17:44:26;5.35;;;2.80;;
72354;SDS011;60314;55.040;73.076;2022-11-15T17:46:52;4.60;;;2.30;;
72354;SDS011;60314;55.040;73.076;2022-11-15T17:49:19;4.97;;;2.40;;
72354;SDS011;60314;55.040;73.076;2022-11-15T17:52:05;5.15;;;2.33;;
72354;SDS011;60314;55.040;73.076;2022-11-15T17:54:43;4.70;;;2.28;;
72354;SDS011;60314;55.040;73.076;2022-11-15T17:57:09;5.18;;;2.53;;
72354;SDS011;60314;55.040;73.076;2022-11-15T17:59:35;4.68;;;2.25;;
72354;SDS011;60314;55.040;73.076;2022-11-15T18:02:02;6.03;;;2.83;;
72354;SDS011;60314;55.040;73.076;2022-11-15T18:04:32;6.43;;;2.50;;
72354;SDS011;60314;55.040;73.076;2022-11-15T18:07:01;5.45;;;2.70;;
72354;SDS011;60314;55.040;73.076;2022-11-15T18:09:28;5.95;;;2.72;;
72354;SDS011;60314;55.040;73.076;2022-11-15T18:12:05;4.53;;;2.35;;
72354;SDS011;60314;55.040;73.076;2022-11-15T18:14:31;5.85;;;2.47;;